createdAt,value
2022-10-11T00:00:11.130Z,102167.88
2022-10-11T00:03:12.476Z,102172.25
2022-10-11T00:06:13.803Z,102176.63
2022-10-11T00:09:15.362Z,102180.97
2022-10-11T00:12:16.723Z,102191.31
2022-10-11T00:15:21.067Z,102189.63
2022-10-11T00:18:22.488Z,102196.63
2022-10-11T00:21:23.815Z,102200.06
2022-10-11T00:24:25.156Z,102207.84
2022-10-11T00:27:26.950Z,102203.63
2022-10-11T00:30:28.303Z,102220.00
2022-10-11T00:33:29.668Z,102217.50
2022-10-11T00:36:31.221Z,102227.78
2022-10-11T00:39:32.687Z,102231.31
2022-10-11T00:42:34.040Z,102235.50
2022-10-11T00:45:35.461Z,102232.00
2022-10-11T00:48:36.789Z,102232.66
2022-10-11T00:51:50.996Z,102231.69
2022-10-11T00:54:52.364Z,102231.69
2022-10-11T00:57:56.277Z,102229.97
2022-10-11T01:00:57.780Z,102238.59
2022-10-11T01:03:59.489Z,102245.31
2022-10-11T01:07:01.929Z,102233.22
2022-10-11T01:10:03.749Z,102236.56
2022-10-11T01:13:30.357Z,102235.63
2022-10-11T01:16:49.778Z,102238.00
2022-10-11T01:19:56.799Z,102233.53
2022-10-11T01:23:09.431Z,102233.47
2022-10-11T01:26:22.781Z,102233.53
2022-10-11T01:29:57.166Z,102233.78
2022-10-11T01:33:17.022Z,102238.22
2022-10-11T01:36:31.748Z,102243.50
2022-10-11T01:39:38.942Z,102244.47
2022-10-11T01:42:42.592Z,102241.16
2022-10-11T01:45:45.299Z,102256.66
2022-10-11T01:48:52.406Z,102246.47
2022-10-11T01:51:57.656Z,102258.53
2022-10-11T01:55:19.897Z,102255.13
2022-10-11T01:58:30.029Z,102258.53
2022-10-11T02:01:59.507Z,102266.16
2022-10-11T02:05:28.926Z,102273.75
2022-10-11T02:08:44.667Z,102270.09
2022-10-11T02:11:46.100Z,102275.94
2022-10-11T02:14:50.640Z,102270.69
2022-10-11T02:17:56.927Z,102269.78
2022-10-11T02:21:02.483Z,102274.88
2022-10-11T02:24:10.624Z,102274.84
2022-10-11T02:27:15.196Z,102269.69
2022-10-11T02:30:17.120Z,102273.25
2022-10-11T02:33:24.581Z,102275.09
2022-10-11T02:36:39.698Z,102278.69
2022-10-11T02:39:50.394Z,102283.13
2022-10-11T02:43:11.690Z,102278.13
2022-10-11T02:46:16.615Z,102281.66
2022-10-11T02:49:19.904Z,102289.47
2022-10-11T02:52:21.291Z,102289.59
2022-10-11T02:55:22.640Z,102292.22
2022-10-11T02:58:24.646Z,102293.13
2022-10-11T03:01:26.077Z,102288.91
2022-10-11T03:04:27.554Z,102290.69
2022-10-11T03:07:28.927Z,102296.69
2022-10-11T03:10:30.287Z,102308.69
2022-10-11T03:13:31.738Z,102312.94
2022-10-11T03:16:33.106Z,102327.38
2022-10-11T03:19:34.463Z,102329.06
2022-10-11T03:22:35.839Z,102335.13
2022-10-11T03:25:37.239Z,102333.50
2022-10-11T03:28:38.689Z,102344.69
2022-10-11T03:31:40.054Z,102341.34
2022-10-11T03:34:41.402Z,102345.75
2022-10-11T03:37:42.731Z,102353.50
2022-10-11T03:40:44.128Z,102352.75
2022-10-11T03:43:45.466Z,102351.06
2022-10-11T03:46:46.894Z,102355.38
2022-10-11T03:49:48.251Z,102353.69
2022-10-11T03:52:49.587Z,102355.38
2022-10-11T03:55:55.608Z,102349.31
2022-10-11T03:58:56.995Z,102367.19
2022-10-11T04:01:58.358Z,102366.19
2022-10-11T04:04:59.740Z,102367.00
2022-10-11T04:08:01.085Z,102366.13
2022-10-11T04:11:02.480Z,102367.00
2022-10-11T04:14:03.826Z,102373.09
2022-10-11T04:17:05.156Z,102378.28
2022-10-11T04:20:07.561Z,102380.09
2022-10-11T04:23:08.920Z,102387.00
2022-10-11T04:26:10.788Z,102390.50
2022-10-11T04:29:12.153Z,102392.22
2022-10-11T04:32:13.485Z,102401.69
2022-10-11T04:35:14.833Z,102396.59
2022-10-11T04:38:16.196Z,102406.03
2022-10-11T04:41:17.597Z,102404.34
2022-10-11T04:44:18.945Z,102419.75
2022-10-11T04:47:20.329Z,102417.19
2022-10-11T04:50:21.802Z,102418.03
2022-10-11T04:53:23.627Z,102425.75
2022-10-11T04:56:24.986Z,102430.06
2022-10-11T04:59:26.330Z,102431.81
2022-10-11T05:02:27.704Z,102432.72
2022-10-11T05:05:29.110Z,102440.44
2022-10-11T05:08:30.488Z,102436.16
2022-10-11T05:11:31.983Z,102431.88
2022-10-11T05:14:33.346Z,102436.16
2022-10-11T05:17:35.090Z,102441.31
2022-10-11T05:20:36.436Z,102446.44
2022-10-11T05:23:37.778Z,102453.31
2022-10-11T05:26:39.194Z,102455.91
2022-10-11T05:29:40.591Z,102449.94
2022-10-11T05:32:41.947Z,102452.50
2022-10-11T05:35:43.871Z,102451.63
2022-10-11T05:38:45.210Z,102461.00
2022-10-11T05:41:46.552Z,102478.09
2022-10-11T05:44:47.868Z,102484.88
2022-10-11T05:47:49.225Z,102488.25
2022-10-11T05:50:50.545Z,102489.03
2022-10-11T05:53:51.907Z,102493.25
2022-10-11T05:56:53.244Z,102501.78
2022-10-11T05:59:54.564Z,102492.38
2022-10-11T06:02:55.930Z,102489.78
2022-10-11T06:05:57.478Z,102491.41
2022-10-11T06:08:58.853Z,102494.78
2022-10-11T06:12:00.609Z,102490.41
2022-10-11T06:15:02.953Z,102503.97
2022-10-11T06:18:04.433Z,102509.84
2022-10-11T06:21:05.836Z,102508.03
2022-10-11T06:24:07.387Z,102516.41
2022-10-11T06:27:08.769Z,102514.56
2022-10-11T06:30:10.371Z,102518.94
2022-10-11T06:33:11.700Z,102506.13
2022-10-11T06:36:14.360Z,102497.22
2022-10-11T06:39:15.700Z,102500.13
2022-10-11T06:42:17.411Z,102514.06
2022-10-11T06:45:18.767Z,102511.03
2022-10-11T06:48:20.099Z,102506.53
2022-10-11T06:51:22.131Z,102503.69
2022-10-11T06:54:23.839Z,102515.41
2022-10-11T06:57:25.168Z,102514.00
2022-10-11T07:00:26.521Z,102516.59
2022-10-11T07:03:29.289Z,102523.44
2022-10-11T07:06:31.578Z,102528.28
2022-10-11T07:09:34.140Z,102527.75
2022-10-11T07:12:35.537Z,102535.31
2022-10-11T07:15:37.193Z,102537.16
2022-10-11T07:18:39.128Z,102549.25
2022-10-11T07:21:40.461Z,102546.91
2022-10-11T07:24:41.801Z,102551.19
2022-10-11T07:27:43.154Z,102555.47
2022-10-11T07:30:44.481Z,102553.88
2022-10-11T07:33:46.305Z,102556.47
2022-10-11T07:36:47.654Z,102559.81
2022-10-11T07:39:49.550Z,102560.59
2022-10-11T07:42:50.881Z,102560.50
2022-10-11T07:45:53.205Z,102563.63
2022-10-11T07:48:54.547Z,102557.66
2022-10-11T07:51:55.866Z,102564.44
2022-10-11T07:54:57.190Z,102568.59
2022-10-11T07:57:58.566Z,102571.81
2022-10-11T08:01:00.372Z,102570.75
2022-10-11T08:04:01.818Z,102568.19
2022-10-11T08:07:03.498Z,102576.63
2022-10-11T08:10:06.591Z,102575.78
2022-10-11T08:13:07.999Z,102574.03
2022-10-11T08:16:11.479Z,102586.84
2022-10-11T08:19:12.870Z,102581.63
2022-10-11T08:22:14.275Z,102580.56
2022-10-11T08:25:15.659Z,102590.63
2022-10-11T08:28:17.087Z,102591.28
2022-10-11T08:31:18.654Z,102597.16
2022-10-11T08:34:20.016Z,102595.19
2022-10-11T08:37:21.350Z,102597.56
2022-10-11T08:40:24.328Z,102595.44
2022-10-11T08:43:52.137Z,102598.66
2022-10-11T08:47:01.160Z,102597.94
2022-10-11T08:50:05.036Z,102600.78
2022-10-11T08:53:40.154Z,102604.50
2022-10-11T08:56:42.396Z,102594.44
2022-10-11T08:59:55.593Z,102600.59
2022-10-11T09:03:20.972Z,102596.47
2022-10-11T09:06:25.150Z,102597.00
2022-10-11T09:09:45.261Z,102599.22
2022-10-11T09:13:07.968Z,102606.19
2022-10-11T09:16:15.294Z,102602.16
2022-10-11T09:19:48.929Z,102598.31
2022-10-11T09:23:03.109Z,102606.78
2022-10-11T09:26:18.945Z,102604.56
2022-10-11T09:29:50.276Z,102611.22
2022-10-11T09:32:58.537Z,102613.03
2022-10-11T09:36:02.393Z,102608.50
2022-10-11T09:39:31.390Z,102610.56
2022-10-11T09:42:32.708Z,102604.44
2022-10-11T09:45:34.048Z,102606.16
2022-10-11T09:48:41.124Z,102611.03
2022-10-11T09:51:47.225Z,102608.03
2022-10-11T09:54:51.499Z,102610.69
2022-10-11T09:57:55.558Z,102618.63
2022-10-11T10:01:07.701Z,102611.53
2022-10-11T10:04:12.907Z,102611.75
2022-10-11T10:07:15.591Z,102607.00
2022-10-11T10:10:30.134Z,102623.56
2022-10-11T10:13:49.227Z,102618.88
2022-10-11T10:17:00.463Z,102631.09
2022-10-11T10:20:02.383Z,102630.28
2022-10-11T10:23:28.821Z,102637.19
2022-10-11T10:26:32.439Z,102628.78
2022-10-11T10:29:33.852Z,102626.47
2022-10-11T10:32:48.537Z,102626.69
2022-10-11T10:35:56.380Z,102624.78
2022-10-11T10:39:39.073Z,102634.94
2022-10-11T10:42:40.452Z,102635.91
2022-10-11T10:46:23.533Z,102635.16
2022-10-11T10:49:55.117Z,102641.69
2022-10-11T10:52:59.461Z,102634.63
2022-10-11T10:56:24.737Z,102641.53
2022-10-11T10:59:33.753Z,102629.25
2022-10-11T11:02:54.756Z,102642.03
2022-10-11T11:06:09.908Z,102648.19
2022-10-11T11:09:36.365Z,102652.91
2022-10-11T11:12:46.123Z,102651.69
2022-10-11T11:16:01.904Z,102652.31
2022-10-11T11:19:48.670Z,102646.72
2022-10-11T11:23:16.166Z,102657.75
2022-10-11T11:26:32.591Z,102657.66
2022-10-11T11:29:58.942Z,102655.44
2022-10-11T11:33:14.955Z,102660.59
2022-10-11T11:36:27.088Z,102668.44
2022-10-11T11:39:37.642Z,102661.53
2022-10-11T11:42:45.687Z,102659.34
2022-10-11T11:45:52.052Z,102653.84
2022-10-11T11:48:56.756Z,102660.25
2022-10-11T11:51:59.632Z,102655.91
2022-10-11T11:55:24.440Z,102659.00
2022-10-11T11:58:47.820Z,102656.16
2022-10-11T12:02:06.909Z,102653.44
2022-10-11T12:05:10.097Z,102657.19
2022-10-11T12:08:25.883Z,102654.63
2022-10-11T12:11:52.816Z,102657.44
2022-10-11T12:15:15.316Z,102648.91
2022-10-11T12:18:17.101Z,102638.00
2022-10-11T12:21:37.845Z,102646.56
2022-10-11T12:25:01.660Z,102649.09
2022-10-11T12:28:38.035Z,102645.94
2022-10-11T12:31:43.731Z,102642.97
2022-10-11T12:34:47.281Z,102637.25
2022-10-11T12:37:52.294Z,102633.66
2022-10-11T12:40:56.854Z,102633.59
2022-10-11T12:44:18.683Z,102632.03
2022-10-11T12:47:35.170Z,102629.81
2022-10-11T12:51:03.210Z,102624.41
2022-10-11T12:54:33.275Z,102633.94
2022-10-11T12:57:55.842Z,102630.84
2022-10-11T13:00:57.174Z,102622.38
2022-10-11T13:04:02.930Z,102624.13
2022-10-11T13:07:12.958Z,102627.19
2022-10-11T13:10:17.832Z,102629.13
2022-10-11T13:13:25.516Z,102626.31
2022-10-11T13:16:29.794Z,102628.66
2022-10-11T13:19:33.409Z,102622.38
2022-10-11T13:22:37.979Z,102621.34
2022-10-11T13:25:39.402Z,102620.53
2022-10-11T13:28:47.974Z,102620.94
2022-10-11T13:31:50.523Z,102621.53
2022-10-11T13:35:25.439Z,102613.63
2022-10-11T13:38:28.227Z,102616.38
2022-10-11T13:41:31.911Z,102611.66
2022-10-11T13:44:33.923Z,102615.31
2022-10-11T13:47:35.400Z,102608.31
2022-10-11T13:50:36.779Z,102608.97
2022-10-11T13:53:55.881Z,102601.81
2022-10-11T13:56:57.279Z,102609.56
2022-10-11T13:59:58.828Z,102613.72
2022-10-11T14:03:05.049Z,102612.94
2022-10-11T14:06:07.532Z,102612.44
2022-10-11T14:09:27.197Z,102610.31
2022-10-11T14:12:33.269Z,102607.50
2022-10-11T14:15:36.994Z,102600.97
2022-10-11T14:18:44.029Z,102608.63
2022-10-11T14:21:45.325Z,102609.31
2022-10-11T14:24:47.866Z,102611.59
2022-10-11T14:27:49.618Z,102606.66
2022-10-11T14:30:50.954Z,102614.28
2022-10-11T14:33:53.386Z,102612.59
2022-10-11T14:36:56.021Z,102620.66
2022-10-11T14:39:57.369Z,102610.44
2022-10-11T14:42:58.794Z,102614.88
2022-10-11T14:46:00.226Z,102618.56
2022-10-11T14:49:01.810Z,102617.91
2022-10-11T14:52:05.651Z,102614.06
2022-10-11T14:55:07.286Z,102622.72
2022-10-11T14:58:09.886Z,102615.16
2022-10-11T15:01:13.475Z,102618.97
2022-10-11T15:04:14.882Z,102616.94
2022-10-11T15:07:16.259Z,102634.53
2022-10-11T15:10:28.587Z,102625.34
2022-10-11T15:13:29.895Z,102629.09
2022-10-11T15:16:31.775Z,102626.63
2022-10-11T15:19:33.115Z,102627.66
2022-10-11T15:22:34.465Z,102630.91
2022-10-11T15:25:36.891Z,102623.06
2022-10-11T15:28:38.290Z,102625.19
2022-10-11T15:31:39.803Z,102631.34
2022-10-11T15:34:41.121Z,102629.88
2022-10-11T15:37:43.203Z,102630.06
2022-10-11T15:40:44.692Z,102626.66
2022-10-11T15:43:48.104Z,102626.91
2022-10-11T15:46:49.464Z,102631.34
2022-10-11T15:49:50.809Z,102631.28
2022-10-11T15:52:52.192Z,102629.78
2022-10-11T15:55:55.488Z,102640.16
2022-10-11T15:58:56.736Z,102636.81
2022-10-11T16:01:58.135Z,102642.31
2022-10-11T16:04:59.497Z,102641.50
2022-10-11T16:08:00.856Z,102631.28
2022-10-11T16:11:03.213Z,102635.72
2022-10-11T16:14:04.539Z,102630.78
2022-10-11T16:17:05.873Z,102643.75
2022-10-11T16:20:07.798Z,102641.34
2022-10-11T16:23:09.830Z,102639.75
2022-10-11T16:26:13.370Z,102646.78
2022-10-11T16:29:14.726Z,102637.34
2022-10-11T16:32:16.161Z,102639.06
2022-10-11T16:35:17.658Z,102650.31
2022-10-11T16:38:18.990Z,102651.38
2022-10-11T16:41:20.343Z,102648.03
2022-10-11T16:44:22.721Z,102654.09
2022-10-11T16:47:24.080Z,102656.00
2022-10-11T16:50:26.034Z,102656.03
2022-10-11T16:53:27.356Z,102651.81
2022-10-11T16:56:28.790Z,102653.56
2022-10-11T16:59:30.640Z,102657.03
2022-10-11T17:02:32.702Z,102659.75
2022-10-11T17:05:36.351Z,102646.78
2022-10-11T17:08:37.732Z,102654.69
2022-10-11T17:11:39.170Z,102641.72
2022-10-11T17:14:41.465Z,102652.09
2022-10-11T17:17:42.813Z,102647.97
2022-10-11T17:20:44.304Z,102641.84
2022-10-11T17:23:46.300Z,102647.97
2022-10-11T17:26:47.669Z,102643.06
2022-10-11T17:29:49.028Z,102650.91
2022-10-11T17:32:53.251Z,102649.91
2022-10-11T17:35:56.124Z,102652.50
2022-10-11T17:38:58.972Z,102648.31
2022-10-11T17:42:00.449Z,102651.91
2022-10-11T17:45:01.993Z,102656.31
2022-10-11T17:48:03.493Z,102654.63
2022-10-11T17:51:10.485Z,102655.56
2022-10-11T17:54:11.865Z,102650.44
2022-10-11T17:57:13.233Z,102643.53
2022-10-11T18:00:15.277Z,102644.47
2022-10-11T18:03:16.593Z,102648.97
2022-10-11T18:06:17.974Z,102647.34
2022-10-11T18:09:19.999Z,102651.78
2022-10-11T18:12:21.341Z,102651.88
2022-10-11T18:15:22.750Z,102659.94
2022-10-11T18:18:24.098Z,102652.56
2022-10-11T18:21:31.192Z,102652.16
2022-10-11T18:24:35.426Z,102658.69
2022-10-11T18:27:36.818Z,102652.25
2022-10-11T18:30:45.842Z,102656.94
2022-10-11T18:33:48.234Z,102664.06
2022-10-11T18:36:49.603Z,102663.63
2022-10-11T18:39:50.947Z,102667.38
2022-10-11T18:42:52.274Z,102669.56
2022-10-11T18:46:02.651Z,102657.69
2022-10-11T18:49:04.018Z,102667.44
2022-10-11T18:52:05.638Z,102663.34
2022-10-11T18:55:07.375Z,102664.31
2022-10-11T18:58:08.720Z,102658.44
2022-10-11T19:01:13.858Z,102661.09
2022-10-11T19:04:15.524Z,102658.69
2022-10-11T19:07:16.851Z,102659.72
2022-10-11T19:10:18.216Z,102650.38
2022-10-11T19:13:19.548Z,102654.75
2022-10-11T19:16:20.919Z,102649.72
2022-10-11T19:19:25.408Z,102652.41
2022-10-11T19:22:26.760Z,102655.16
2022-10-11T19:25:28.130Z,102661.22
2022-10-11T19:28:29.528Z,102660.41
2022-10-11T19:31:32.941Z,102658.75
2022-10-11T19:34:34.196Z,102658.56
2022-10-11T19:37:35.542Z,102667.78
2022-10-11T19:40:37.041Z,102658.44
2022-10-11T19:43:38.557Z,102657.66
2022-10-11T19:46:55.642Z,102661.13
2022-10-11T19:49:56.976Z,102653.47
2022-10-11T19:52:58.342Z,102660.53
2022-10-11T19:56:01.369Z,102663.16
2022-10-11T19:59:03.677Z,102664.16
2022-10-11T20:02:05.061Z,102666.84
2022-10-11T20:05:06.653Z,102658.44
2022-10-11T20:08:07.999Z,102666.34
2022-10-11T20:11:09.889Z,102661.31
2022-10-11T20:14:11.235Z,102657.94
2022-10-11T20:17:12.595Z,102660.56
2022-10-11T20:20:15.082Z,102659.66
2022-10-11T20:23:18.221Z,102661.41
2022-10-11T20:26:22.354Z,102657.91
2022-10-11T20:29:24.642Z,102657.16
2022-10-11T20:32:26.987Z,102663.34
2022-10-11T20:35:28.359Z,102664.28
2022-10-11T20:38:31.770Z,102667.88
2022-10-11T20:41:34.458Z,102670.97
2022-10-11T20:44:35.849Z,102661.31
2022-10-11T20:47:37.207Z,102676.06
2022-10-11T20:50:38.628Z,102671.19
2022-10-11T20:53:39.959Z,102683.03
2022-10-11T20:56:41.557Z,102680.53
2022-10-11T20:59:42.896Z,102679.56
2022-10-11T21:02:44.219Z,102682.16
2022-10-11T21:05:45.588Z,102672.75
2022-10-11T21:08:47.012Z,102677.19
2022-10-11T21:11:48.497Z,102679.78
2022-10-11T21:14:49.832Z,102677.25
2022-10-11T21:17:51.833Z,102676.47
2022-10-11T21:20:53.165Z,102680.88
2022-10-11T21:24:00.125Z,102683.69
2022-10-11T21:27:01.469Z,102682.91
2022-10-11T21:30:03.082Z,102688.09
2022-10-11T21:33:04.429Z,102686.44
2022-10-11T21:36:08.137Z,102680.53
2022-10-11T21:39:09.483Z,102688.41
2022-10-11T21:42:10.871Z,102681.63
2022-10-11T21:45:12.275Z,102683.31
2022-10-11T21:48:13.618Z,102685.88
2022-10-11T21:51:19.460Z,102691.69
2022-10-11T21:54:20.830Z,102684.91
2022-10-11T21:57:22.284Z,102690.88
2022-10-11T22:00:23.622Z,102690.06
2022-10-11T22:03:25.789Z,102685.84
2022-10-11T22:06:27.142Z,102688.56
2022-10-11T22:09:28.670Z,102682.59
2022-10-11T22:12:30.027Z,102686.09
2022-10-11T22:15:33.942Z,102682.69
2022-10-11T22:18:35.667Z,102679.28
2022-10-11T22:21:39.184Z,102680.94
2022-10-11T22:24:43.976Z,102684.34
2022-10-11T22:27:45.315Z,102690.34
2022-10-11T22:30:46.643Z,102692.06
2022-10-11T22:33:48.342Z,102692.94
2022-10-11T22:36:49.672Z,102693.81
2022-10-11T22:39:51.188Z,102685.28
2022-10-11T22:42:52.515Z,102685.19
2022-10-11T22:45:54.089Z,102690.38
2022-10-11T22:48:55.743Z,102689.53
2022-10-11T22:51:57.057Z,102685.28
2022-10-11T22:54:58.402Z,102691.38
2022-10-11T22:57:59.768Z,102690.50
2022-10-11T23:01:13.324Z,102694.06
2022-10-11T23:04:15.296Z,102696.91
2022-10-11T23:07:16.631Z,102691.63
2022-10-11T23:10:18.550Z,102697.63
2022-10-11T23:13:20.165Z,102701.88
2022-10-11T23:16:21.513Z,102703.69
2022-10-11T23:19:22.887Z,102705.47
2022-10-11T23:22:24.293Z,102706.22
2022-10-11T23:25:25.787Z,102696.75
2022-10-11T23:28:27.186Z,102702.69
2022-10-11T23:31:28.622Z,102706.06
2022-10-11T23:34:29.954Z,102703.47
2022-10-11T23:37:31.326Z,102706.84
2022-10-11T23:40:32.686Z,102714.53
2022-10-11T23:43:34.062Z,102715.41
2022-10-11T23:46:35.572Z,102717.94
2022-10-11T23:49:36.889Z,102723.00
2022-10-11T23:52:38.251Z,102720.44
2022-10-11T23:55:40.438Z,102722.09
2022-10-11T23:58:41.779Z,102716.03
